sensor_id;sensor_type;location;lat;lon;timestamp;pressure;altitude;pressure_sealevel;temperature;humidity
6028;BME280;3042;43.194;27.646;2023-05-20T00:02:06;101632.22;;;24.34;100.00
6028;BME280;3042;43.194;27.646;2023-05-20T00:04:33;101650.66;;;24.23;100.00
6028;BME280;3042;43.194;27.646;2023-05-20T00:07:00;101558.94;;;23.71;100.00
6028;BME280;3042;43.194;27.646;2023-05-20T00:09:28;101469.09;;;23.22;100.00
6028;BME280;3042;43.194;27.646;2023-05-20T00:11:57;100907.59;;;19.92;100.00
6028;BME280;3042;43.194;27.646;2023-05-20T00:14:24;101643.56;;;24.02;100.00
6028;BME280;3042;43.194;27.646;2023-05-20T00:16:53;101634.78;;;24.06;100.00
6028;BME280;3042;43.194;27.646;2023-05-20T00:19:22;101498.16;;;23.41;100.00
6028;BME280;3042;43.194;27.646;2023-05-20T00:21:50;101633.91;;;24.02;100.00
6028;BME280;3042;43.194;27.646;2023-05-20T00:24:18;101513.88;;;23.17;100.00
6028;BME280;3042;43.194;27.646;2023-05-20T00:26:45;101628.63;;;24.09;100.00
6028;BME280;3042;43.194;27.646;2023-05-20T00:29:13;101631.28;;;24.10;100.00
6028;BME280;3042;43.194;27.646;2023-05-20T00:31:40;101639.09;;;23.83;100.00
6028;BME280;3042;43.194;27.646;2023-05-20T00:34:07;101633.84;;;23.95;100.00
6028;BME280;3042;43.194;27.646;2023-05-20T00:36:38;101424.03;;;22.77;100.00
6028;BME280;3042;43.194;27.646;2023-05-20T00:39:05;101613.69;;;24.15;100.00
6028;BME280;3042;43.194;27.646;2023-05-20T00:41:34;101618.97;;;24.12;100.00
6028;BME280;3042;43.194;27.646;2023-05-20T00:44:02;101617.22;;;24.17;100.00
6028;BME280;3042;43.194;27.646;2023-05-20T00:46:30;101613.69;;;24.15;100.00
6028;BME280;3042;43.194;27.646;2023-05-20T00:48:57;101607.53;;;24.15;100.00
6028;BME280;3042;43.194;27.646;2023-05-20T00:51:27;101602.25;;;24.22;100.00
6028;BME280;3042;43.194;27.646;2023-05-20T00:53:57;101596.97;;;24.24;100.00
6028;BME280;3042;43.194;27.646;2023-05-20T00:56:25;101546.75;;;23.98;100.00
6028;BME280;3042;43.194;27.646;2023-05-20T00:58:52;101593.44;;;24.25;100.00
6028;BME280;3042;43.194;27.646;2023-05-20T01:01:20;101596.97;;;24.27;100.00
6028;BME280;3042;43.194;27.646;2023-05-20T01:03:47;101599.59;;;24.16;100.00
6028;BME280;3042;43.194;27.646;2023-05-20T01:06:15;101611.94;;;24.14;100.00
6028;BME280;3042;43.194;27.646;2023-05-20T01:08:46;101612.81;;;24.16;100.00
6028;BME280;3042;43.194;27.646;2023-05-20T01:11:21;101571.34;;;23.88;100.00
6028;BME280;3042;43.194;27.646;2023-05-20T01:13:55;101616.25;;;23.97;100.00
6028;BME280;3042;43.194;27.646;2023-05-20T01:16:24;101473.50;;;23.23;100.00
6028;BME280;3042;43.194;27.646;2023-05-20T01:18:54;101441.69;;;22.94;100.00
6028;BME280;3042;43.194;27.646;2023-05-20T01:21:22;101602.16;;;23.84;100.00
6028;BME280;3042;43.194;27.646;2023-05-20T01:23:50;101595.16;;;23.94;100.00
6028;BME280;3042;43.194;27.646;2023-05-20T01:26:18;101591.66;;;23.98;100.00
6028;BME280;3042;43.194;27.646;2023-05-20T01:28:46;101509.63;;;23.55;100.00
6028;BME280;3042;43.194;27.646;2023-05-20T01:31:19;101520.19;;;23.49;100.00
6028;BME280;3042;43.194;27.646;2023-05-20T01:33:52;101542.16;;;23.45;100.00
6028;BME280;3042;43.194;27.646;2023-05-20T01:36:25;101593.41;;;24.07;100.00
6028;BME280;3042;43.194;27.646;2023-05-20T01:38:55;101585.50;;;24.11;100.00
6028;BME280;3042;43.194;27.646;2023-05-20T01:41:24;101596.03;;;23.96;100.00
6028;BME280;3042;43.194;27.646;2023-05-20T01:43:54;101606.56;;;23.90;100.00
6028;BME280;3042;43.194;27.646;2023-05-20T01:46:21;101609.19;;;23.85;100.00
6028;BME280;3042;43.194;27.646;2023-05-20T01:48:49;101615.34;;;23.79;100.00
6028;BME280;3042;43.194;27.646;2023-05-20T01:51:16;101608.31;;;23.85;100.00
6028;BME280;3042;43.194;27.646;2023-05-20T01:53:43;101611.72;;;23.71;100.00
6028;BME280;3042;43.194;27.646;2023-05-20T01:56:12;101625.72;;;23.49;100.00
6028;BME280;3042;43.194;27.646;2023-05-20T01:58:39;101614.41;;;23.70;100.00
6028;BME280;3042;43.194;27.646;2023-05-20T02:01:06;101606.59;;;24.02;100.00
6028;BME280;3042;43.194;27.646;2023-05-20T02:03:33;101613.66;;;24.03;100.00
6028;BME280;3042;43.194;27.646;2023-05-20T02:06:01;101481.41;;;23.22;100.00
6028;BME280;3042;43.194;27.646;2023-05-20T02:08:28;101559.91;;;23.87;100.00
6028;BME280;3042;43.194;27.646;2023-05-20T02:10:55;101609.28;;;24.10;100.00
6028;BME280;3042;43.194;27.646;2023-05-20T02:13:26;101606.63;;;24.20;100.00
6028;BME280;3042;43.194;27.646;2023-05-20T02:15:54;101622.50;;;24.14;100.00
6028;BME280;3042;43.194;27.646;2023-05-20T02:18:23;101617.22;;;24.19;100.00
6028;BME280;3042;43.194;27.646;2023-05-20T02:20:51;101613.69;;;24.17;100.00
6028;BME280;3042;43.194;27.646;2023-05-20T02:23:18;101613.69;;;24.25;100.00
6028;BME280;3042;43.194;27.646;2023-05-20T02:25:45;101615.47;;;24.29;100.00
6028;BME280;3042;43.194;27.646;2023-05-20T02:28:15;101618.97;;;24.21;100.00
6028;BME280;3042;43.194;27.646;2023-05-20T02:30:44;101309.75;;;22.46;100.00
6028;BME280;3042;43.194;27.646;2023-05-20T02:33:11;101596.94;;;24.13;100.00
6028;BME280;3042;43.194;27.646;2023-05-20T02:35:39;101616.38;;;24.38;100.00
6028;BME280;3042;43.194;27.646;2023-05-20T02:38:07;101613.72;;;24.46;100.00
6028;BME280;3042;43.194;27.646;2023-05-20T02:40:42;101604.94;;;24.42;100.00
6028;BME280;3042;43.194;27.646;2023-05-20T02:43:12;101624.25;;;24.18;100.00
6028;BME280;3042;43.194;27.646;2023-05-20T02:45:40;101358.78;;;22.23;100.00
6028;BME280;3042;43.194;27.646;2023-05-20T02:48:09;101566.78;;;23.44;100.00
6028;BME280;3042;43.194;27.646;2023-05-20T02:50:39;101656.69;;;23.74;100.00
6028;BME280;3042;43.194;27.646;2023-05-20T02:53:08;101470.53;;;22.68;100.00
6028;BME280;3042;43.194;27.646;2023-05-20T02:55:35;101616.84;;;23.34;100.00
6028;BME280;3042;43.194;27.646;2023-05-20T02:58:03;101315.91;;;21.34;100.00
6028;BME280;3042;43.194;27.646;2023-05-20T03:00:30;101651.25;;;23.54;100.00
6028;BME280;3042;43.194;27.646;2023-05-20T03:03:00;101645.16;;;23.63;100.00
6028;BME280;3042;43.194;27.646;2023-05-20T03:05:29;101720.00;;;23.76;100.00
6028;BME280;3042;43.194;27.646;2023-05-20T03:07:58;101648.69;;;23.68;100.00
6028;BME280;3042;43.194;27.646;2023-05-20T03:10:26;101653.19;;;23.88;100.00
6028;BME280;3042;43.194;27.646;2023-05-20T03:12:53;101362.31;;;22.25;100.00
6028;BME280;3042;43.194;27.646;2023-05-20T03:15:23;101655.03;;;24.06;100.00
6028;BME280;3042;43.194;27.646;2023-05-20T03:17:52;101413.38;;;22.56;100.00
6028;BME280;3042;43.194;27.646;2023-05-20T03:20:20;101573.00;;;23.58;100.00
6028;BME280;3042;43.194;27.646;2023-05-20T03:22:49;101572.97;;;23.52;100.00
6028;BME280;3042;43.194;27.646;2023-05-20T03:25:17;101662.06;;;24.00;100.00
6028;BME280;3042;43.194;27.646;2023-05-20T03:27:44;101659.44;;;24.11;100.00
6028;BME280;3042;43.194;27.646;2023-05-20T03:30:12;101608.38;;;24.00;100.00
6028;BME280;3042;43.194;27.646;2023-05-20T03:32:41;101432.88;;;22.89;100.00
6028;BME280;3042;43.194;27.646;2023-05-20T03:35:10;101668.31;;;24.32;100.00
6028;BME280;3042;43.194;27.646;2023-05-20T03:37:37;101565.13;;;23.70;100.00
6028;BME280;3042;43.194;27.646;2023-05-20T03:40:08;101604.00;;;24.13;100.00
6028;BME280;3042;43.194;27.646;2023-05-20T03:42:36;101675.34;;;24.19;100.00
6028;BME280;3042;43.194;27.646;2023-05-20T03:45:05;101508.75;;;23.45;100.00
6028;BME280;3042;43.194;27.646;2023-05-20T03:47:33;101566.06;;;23.88;100.00
6028;BME280;3042;43.194;27.646;2023-05-20T03:50:00;101536.97;;;23.71;100.00
6028;BME280;3042;43.194;27.646;2023-05-20T03:52:27;101671.78;;;24.15;100.00
6028;BME280;3042;43.194;27.646;2023-05-20T03:54:54;101677.88;;;23.91;100.00
6028;BME280;3042;43.194;27.646;2023-05-20T03:57:23;101664.72;;;24.05;100.00
6028;BME280;3042;43.194;27.646;2023-05-20T03:59:50;101682.09;;;23.69;100.00
6028;BME280;3042;43.194;27.646;2023-05-20T04:02:18;101670.78;;;23.79;100.00
6028;BME280;3042;43.194;27.646;2023-05-20T04:04:45;101675.06;;;23.68;100.00
6028;BME280;3042;43.194;27.646;2023-05-20T04:07:16;101567.75;;;23.73;100.00
6028;BME280;3042;43.194;27.646;2023-05-20T04:09:45;101638.34;;;24.27;100.00
6028;BME280;3042;43.194;27.646;2023-05-20T04:12:12;101626.06;;;24.41;100.00
6028;BME280;3042;43.194;27.646;2023-05-20T04:14:41;101476.25;;;23.66;100.00
6028;BME280;3042;43.194;27.646;2023-05-20T04:17:08;101628.75;;;24.50;100.00
6028;BME280;3042;43.194;27.646;2023-05-20T04:19:35;101570.56;;;24.27;100.00
6028;BME280;3042;43.194;27.646;2023-05-20T04:22:03;101559.06;;;23.99;100.00
6028;BME280;3042;43.194;27.646;2023-05-20T04:24:30;101637.50;;;24.40;100.00
6028;BME280;3042;43.194;27.646;2023-05-20T04:26:58;101526.47;;;23.83;100.00
6028;BME280;3042;43.194;27.646;2023-05-20T04:29:25;101651.56;;;24.31;100.00
6028;BME280;3042;43.194;27.646;2023-05-20T04:31:54;101647.16;;;24.35;100.00
6028;BME280;3042;43.194;27.646;2023-05-20T04:34:23;101657.75;;;24.32;100.00
6028;BME280;3042;43.194;27.646;2023-05-20T04:36:51;101543.09;;;23.59;100.00
6028;BME280;3042;43.194;27.646;2023-05-20T04:39:18;101659.41;;;23.99;100.00
6028;BME280;3042;43.194;27.646;2023-05-20T04:41:45;101565.75;;;23.17;100.00
6028;BME280;3042;43.194;27.646;2023-05-20T04:44:13;101667.25;;;23.80;100.00
6028;BME280;3042;43.194;27.646;2023-05-20T04:46:40;101661.97;;;23.79;100.00
6028;BME280;3042;43.194;27.646;2023-05-20T04:49:12;101670.78;;;23.84;100.00
6028;BME280;3042;43.194;27.646;2023-05-20T04:51:40;101666.44;;;23.91;100.00
6028;BME280;3042;43.194;27.646;2023-05-20T04:54:08;101551.63;;;23.06;100.00
6028;BME280;3042;43.194;27.646;2023-05-20T04:56:35;101514.59;;;22.92;100.00
6028;BME280;3042;43.194;27.646;2023-05-20T04:59:02;101669.97;;;24.02;100.00
6028;BME280;3042;43.194;27.646;2023-05-20T05:01:30;101673.47;;;23.95;100.00
6028;BME280;3042;43.194;27.646;2023-05-20T05:03:59;101545.66;;;23.37;100.00
6028;BME280;3042;43.194;27.646;2023-05-20T05:06:32;101658.53;;;24.06;100.00
6028;BME280;3042;43.194;27.646;2023-05-20T05:08:59;101670.81;;;23.92;100.00
6028;BME280;3042;43.194;27.646;2023-05-20T05:11:26;101666.50;;;24.12;100.00
6028;BME280;3042;43.194;27.646;2023-05-20T05:13:54;101683.16;;;23.97;100.00
6028;BME280;3042;43.194;27.646;2023-05-20T05:16:25;101673.53;;;24.07;100.00
6028;BME280;3042;43.194;27.646;2023-05-20T05:18:53;101664.72;;;24.11;100.00
6028;BME280;3042;43.194;27.646;2023-05-20T05:21:20;101656.84;;;24.25;100.00
6028;BME280;3042;43.194;27.646;2023-05-20T05:23:53;101548.47;;;23.74;100.00
6028;BME280;3042;43.194;27.646;2023-05-20T05:26:38;101509.47;;;23.12;100.00
6028;BME280;3042;43.194;27.646;2023-05-20T05:29:07;101612.63;;;23.67;100.00
6028;BME280;3042;43.194;27.646;2023-05-20T05:31:35;101553.31;;;22.94;100.00
6028;BME280;3042;43.194;27.646;2023-05-20T05:34:02;101624.72;;;23.25;100.00
6028;BME280;3042;43.194;27.646;2023-05-20T05:36:32;101659.84;;;23.24;100.00
6028;BME280;3042;43.194;27.646;2023-05-20T05:39:01;101604.22;;;22.90;100.00
6028;BME280;3042;43.194;27.646;2023-05-20T05:41:28;101664.25;;;23.27;100.00
6028;BME280;3042;43.194;27.646;2023-05-20T05:43:56;101410.09;;;21.68;100.00
6028;BME280;3042;43.194;27.646;2023-05-20T05:46:24;101494.25;;;21.68;100.00
6028;BME280;3042;43.194;27.646;2023-05-20T05:48:51;101526.59;;;21.60;100.00
6028;BME280;3042;43.194;27.646;2023-05-20T05:51:18;101654.72;;;22.40;100.00
6028;BME280;3042;43.194;27.646;2023-05-20T05:53:46;101647.72;;;22.42;100.00
6028;BME280;3042;43.194;27.646;2023-05-20T05:56:19;101573.03;;;22.34;100.00
6028;BME280;3042;43.194;27.646;2023-05-20T05:58:48;101651.25;;;22.44;100.00
6028;BME280;3042;43.194;27.646;2023-05-20T06:01:15;101644.31;;;22.52;100.00
6028;BME280;3042;43.194;27.646;2023-05-20T06:03:43;101614.50;;;22.58;100.00
6028;BME280;3042;43.194;27.646;2023-05-20T06:06:12;101483.97;;;21.93;100.00
6028;BME280;3042;43.194;27.646;2023-05-20T06:08:41;101634.19;;;23.00;100.00
6028;BME280;3042;43.194;27.646;2023-05-20T06:11:09;101637.84;;;23.19;100.00
6028;BME280;3042;43.194;27.646;2023-05-20T06:13:45;101643.19;;;23.25;100.00
6028;BME280;3042;43.194;27.646;2023-05-20T06:16:18;101628.41;;;23.56;100.00
6028;BME280;3042;43.194;27.646;2023-05-20T06:18:46;101626.66;;;23.60;100.00
6028;BME280;3042;43.194;27.646;2023-05-20T06:21:15;101497.00;;;22.86;100.00
6028;BME280;3042;43.194;27.646;2023-05-20T06:23:42;101628.56;;;23.95;100.00
6028;BME280;3042;43.194;27.646;2023-05-20T06:26:09;101621.56;;;23.98;100.00
6028;BME280;3042;43.194;27.646;2023-05-20T06:28:38;101614.56;;;24.10;100.00
6028;BME280;3042;43.194;27.646;2023-05-20T06:31:08;101537.81;;;23.62;100.00
6028;BME280;3042;43.194;27.646;2023-05-20T06:33:40;101617.19;;;24.13;100.00
6028;BME280;3042;43.194;27.646;2023-05-20T06:36:13;101528.81;;;23.11;100.00
6028;BME280;3042;43.194;27.646;2023-05-20T06:38:42;101627.66;;;23.80;100.00
6028;BME280;3042;43.194;27.646;2023-05-20T06:41:12;101576.50;;;23.54;100.00
6028;BME280;3042;43.194;27.646;2023-05-20T06:43:40;101632.84;;;23.71;100.00
6028;BME280;3042;43.194;27.646;2023-05-20T06:46:09;101631.19;;;23.83;100.00
6028;BME280;3042;43.194;27.646;2023-05-20T06:48:36;101618.88;;;23.82;100.00
6028;BME280;3042;43.194;27.646;2023-05-20T06:51:09;101504.75;;;22.63;100.00
6028;BME280;3042;43.194;27.646;2023-05-20T06:53:41;101285.13;;;21.23;100.00
6028;BME280;3042;43.194;27.646;2023-05-20T06:56:08;101640.69;;;23.53;100.00
6028;BME280;3042;43.194;27.646;2023-05-20T06:58:39;101499.59;;;22.79;100.00
6028;BME280;3042;43.194;27.646;2023-05-20T07:01:12;101611.72;;;23.68;100.00
6028;BME280;3042;43.194;27.646;2023-05-20T07:03:40;101625.97;;;24.04;100.00
6028;BME280;3042;43.194;27.646;2023-05-20T07:06:09;101631.22;;;23.89;100.00
6028;BME280;3042;43.194;27.646;2023-05-20T07:08:37;101623.34;;;24.10;100.00
6028;BME280;3042;43.194;27.646;2023-05-20T07:11:04;101617.19;;;24.20;100.00
6028;BME280;3042;43.194;27.646;2023-05-20T07:13:31;101586.38;;;24.18;100.00
6028;BME280;3042;43.194;27.646;2023-05-20T07:15:59;101629.53;;;24.18;100.00
6028;BME280;3042;43.194;27.646;2023-05-20T07:18:36;101499.97;;;23.54;100.00
6028;BME280;3042;43.194;27.646;2023-05-20T07:21:05;101648.00;;;24.09;100.00
6028;BME280;3042;43.194;27.646;2023-05-20T07:23:33;101660.97;;;23.63;100.00
6028;BME280;3042;43.194;27.646;2023-05-20T07:26:00;101669.69;;;23.53;100.00
6028;BME280;3042;43.194;27.646;2023-05-20T07:28:28;101671.44;;;23.45;100.00
6028;BME280;3042;43.194;27.646;2023-05-20T07:30:56;101272.44;;;20.78;100.00
6028;BME280;3042;43.194;27.646;2023-05-20T07:33:26;101705.19;;;22.82;100.00
6028;BME280;3042;43.194;27.646;2023-05-20T07:35:56;101691.41;;;23.09;100.00
6028;BME280;3042;43.194;27.646;2023-05-20T07:38:24;101694.22;;;23.33;100.00
6028;BME280;3042;43.194;27.646;2023-05-20T07:40:51;101626.47;;;23.26;100.00
6028;BME280;3042;43.194;27.646;2023-05-20T07:43:19;101663.03;;;24.26;100.00
6028;BME280;3042;43.194;27.646;2023-05-20T07:45:47;101666.63;;;24.61;100.00
6028;BME280;3042;43.194;27.646;2023-05-20T07:48:15;101671.94;;;24.75;100.00
6028;BME280;3042;43.194;27.646;2023-05-20T07:50:43;101673.72;;;24.96;100.00
6028;BME280;3042;43.194;27.646;2023-05-20T07:53:12;101622.56;;;25.06;100.00
6028;BME280;3042;43.194;27.646;2023-05-20T07:55:46;101664.00;;;25.38;100.00
6028;BME280;3042;43.194;27.646;2023-05-20T07:58:18;101660.47;;;25.30;100.00
6028;BME280;3042;43.194;27.646;2023-05-20T08:00:46;101613.72;;;25.17;100.00
6028;BME280;3042;43.194;27.646;2023-05-20T08:03:14;101488.66;;;24.75;100.00
6028;BME280;3042;43.194;27.646;2023-05-20T08:05:42;101649.78;;;25.61;100.00
6028;BME280;3042;43.194;27.646;2023-05-20T08:08:10;101650.63;;;25.77;100.00
6028;BME280;3042;43.194;27.646;2023-05-20T08:10:39;101569.63;;;25.10;100.00
6028;BME280;3042;43.194;27.646;2023-05-20T08:13:07;101647.06;;;25.88;100.00
6028;BME280;3042;43.194;27.646;2023-05-20T08:15:35;101522.06;;;25.00;100.00
6028;BME280;3042;43.194;27.646;2023-05-20T08:18:04;101522.03;;;25.16;100.00
6028;BME280;3042;43.194;27.646;2023-05-20T08:20:32;101643.56;;;25.89;100.00
6028;BME280;3042;43.194;27.646;2023-05-20T08:23:07;101638.25;;;25.86;100.00
6028;BME280;3042;43.194;27.646;2023-05-20T08:25:35;101639.09;;;25.99;100.00
6028;BME280;3042;43.194;27.646;2023-05-20T08:28:05;101636.28;;;26.25;100.00
6028;BME280;3042;43.194;27.646;2023-05-20T08:30:33;101626.59;;;26.21;100.00
6028;BME280;3042;43.194;27.646;2023-05-20T08:33:10;101654.00;;;26.17;100.00
6028;BME280;3042;43.194;27.646;2023-05-20T08:36:19;101604.69;;;25.85;100.00
6028;BME280;3042;43.194;27.646;2023-05-20T08:39:22;101674.41;;;25.98;100.00
6028;BME280;3042;43.194;27.646;2023-05-20T08:41:55;101650.34;;;26.33;100.00
6028;BME280;3042;43.194;27.646;2023-05-20T08:44:28;101651.16;;;26.54;100.00
6028;BME280;3042;43.194;27.646;2023-05-20T08:46:56;101629.06;;;26.55;100.00
6028;BME280;3042;43.194;27.646;2023-05-20T08:49:23;101653.53;;;26.85;100.00
6028;BME280;3042;43.194;27.646;2023-05-20T08:51:50;101656.00;;;27.06;100.00
6028;BME280;3042;43.194;27.646;2023-05-20T08:54:20;101623.31;;;27.04;100.00
6028;BME280;3042;43.194;27.646;2023-05-20T08:57:08;101656.81;;;27.14;100.00
6028;BME280;3042;43.194;27.646;2023-05-20T08:59:46;101632.00;;;27.22;100.00
6028;BME280;3042;43.194;27.646;2023-05-20T09:02:13;101646.88;;;27.40;100.00
6028;BME280;3042;43.194;27.646;2023-05-20T09:04:40;101537.84;;;26.73;100.00
6028;BME280;3042;43.194;27.646;2023-05-20T09:07:08;101659.47;;;27.21;100.00
6028;BME280;3042;43.194;27.646;2023-05-20T09:09:35;101655.00;;;27.23;100.00
6028;BME280;3042;43.194;27.646;2023-05-20T09:12:03;101651.47;;;27.17;100.00
6028;BME280;3042;43.194;27.646;2023-05-20T09:14:32;101633.50;;;27.47;100.00
6028;BME280;3042;43.194;27.646;2023-05-20T09:17:00;101635.00;;;27.70;100.00
6028;BME280;3042;43.194;27.646;2023-05-20T09:19:28;101612.41;;;27.35;100.00
6028;BME280;3042;43.194;27.646;2023-05-20T09:21:55;101645.59;;;27.73;100.00
6028;BME280;3042;43.194;27.646;2023-05-20T09:24:24;101638.41;;;27.84;100.00
6028;BME280;3042;43.194;27.646;2023-05-20T09:30:05;101534.72;;;27.21;100.00
6028;BME280;3042;43.194;27.646;2023-05-20T09:32:34;101625.97;;;27.86;100.00
6028;BME280;3042;43.194;27.646;2023-05-20T09:35:03;101627.81;;;27.76;100.00
6028;BME280;3042;43.194;27.646;2023-05-20T09:37:33;101620.75;;;27.77;100.00
6028;BME280;3042;43.194;27.646;2023-05-20T09:40:03;101592.53;;;27.67;100.00
6028;BME280;3042;43.194;27.646;2023-05-20T09:42:37;101614.47;;;27.81;100.00
6028;BME280;3042;43.194;27.646;2023-05-20T09:45:07;101602.75;;;27.99;100.00
6028;BME280;3042;43.194;27.646;2023-05-20T09:47:37;101521.47;;;27.86;100.00
6028;BME280;3042;43.194;27.646;2023-05-20T09:50:06;101599.56;;;28.36;100.00
6028;BME280;3042;43.194;27.646;2023-05-20T09:52:34;101589.59;;;28.52;100.00
6028;BME280;3042;43.194;27.646;2023-05-20T09:55:04;101604.56;;;28.57;100.00
6028;BME280;3042;43.194;27.646;2023-05-20T09:57:48;101589.09;;;28.79;100.00
6028;BME280;3042;43.194;27.646;2023-05-20T10:00:27;101600.28;;;28.46;100.00
6028;BME280;3042;43.194;27.646;2023-05-20T10:02:59;101513.84;;;28.20;100.00
6028;BME280;3042;43.194;27.646;2023-05-20T10:05:28;101569.41;;;28.90;100.00
6028;BME280;3042;43.194;27.646;2023-05-20T10:11:20;101559.16;;;29.16;100.00
6028;BME280;3042;43.194;27.646;2023-05-20T10:14:07;101565.75;;;28.94;100.00
6028;BME280;3042;43.194;27.646;2023-05-20T10:16:41;101554.88;;;29.09;100.00
6028;BME280;3042;43.194;27.646;2023-05-20T10:19:19;101474.22;;;28.59;100.00
6028;BME280;3042;43.194;27.646;2023-05-20T10:21:56;101525.13;;;28.86;100.00
6028;BME280;3042;43.194;27.646;2023-05-20T10:24:29;101546.88;;;29.11;100.00
6028;BME280;3042;43.194;27.646;2023-05-20T10:26:57;101560.66;;;28.83;100.00
6028;BME280;3042;43.194;27.646;2023-05-20T10:29:24;101547.13;;;28.95;100.00
6028;BME280;3042;43.194;27.646;2023-05-20T10:31:52;101471.25;;;28.73;100.00
6028;BME280;3042;43.194;27.646;2023-05-20T10:34:21;101540.91;;;28.95;100.00
6028;BME280;3042;43.194;27.646;2023-05-20T10:36:58;101468.38;;;27.81;100.00
6028;BME280;3042;43.194;27.646;2023-05-20T10:39:27;101466.63;;;27.15;100.00
6028;BME280;3042;43.194;27.646;2023-05-20T10:42:10;101556.72;;;27.98;100.00
6028;BME280;3042;43.194;27.646;2023-05-20T10:44:41;101507.13;;;27.97;100.00
6028;BME280;3042;43.194;27.646;2023-05-20T10:47:08;101439.28;;;27.73;100.00
6028;BME280;3042;43.194;27.646;2023-05-20T10:49:43;101403.31;;;27.52;100.00
6028;BME280;3042;43.194;27.646;2023-05-20T10:52:11;101528.88;;;28.21;100.00
6028;BME280;3042;43.194;27.646;2023-05-20T10:54:42;101509.88;;;28.46;100.00
6028;BME280;3042;43.194;27.646;2023-05-20T10:57:11;101407.69;;;27.56;100.00
6028;BME280;3042;43.194;27.646;2023-05-20T10:59:38;101516.69;;;28.62;100.00
6028;BME280;3042;43.194;27.646;2023-05-20T11:02:05;101402.91;;;28.31;100.00
6028;BME280;3042;43.194;27.646;2023-05-20T11:04:33;101419.84;;;28.72;100.00
6028;BME280;3042;43.194;27.646;2023-05-20T11:07:02;101476.13;;;29.41;100.00
6028;BME280;3042;43.194;27.646;2023-05-20T11:09:29;101481.00;;;29.19;100.00
6028;BME280;3042;43.194;27.646;2023-05-20T11:11:58;101464.63;;;29.39;100.00
6028;BME280;3042;43.194;27.646;2023-05-20T11:14:27;101441.00;;;29.61;100.00
6028;BME280;3042;43.194;27.646;2023-05-20T11:16:55;101442.19;;;29.86;100.00
6028;BME280;3042;43.194;27.646;2023-05-20T11:19:23;101382.84;;;30.14;100.00
6028;BME280;3042;43.194;27.646;2023-05-20T11:21:51;101347.06;;;29.90;98.10
6028;BME280;3042;43.194;27.646;2023-05-20T11:24:24;101319.41;;;30.27;93.98
6028;BME280;3042;43.194;27.646;2023-05-20T11:26:52;101385.41;;;30.52;85.11
6028;BME280;3042;43.194;27.646;2023-05-20T11:29:20;101385.88;;;30.66;86.11
6028;BME280;3042;43.194;27.646;2023-05-20T11:31:48;101368.28;;;30.60;80.79
6028;BME280;3042;43.194;27.646;2023-05-20T11:34:19;101325.78;;;31.12;86.93
6028;BME280;3042;43.194;27.646;2023-05-20T11:36:47;101294.41;;;30.90;79.16
6028;BME280;3042;43.194;27.646;2023-05-20T11:39:15;101334.72;;;31.11;78.06
6028;BME280;3042;43.194;27.646;2023-05-20T11:41:44;101326.25;;;31.25;72.67
6028;BME280;3042;43.194;27.646;2023-05-20T11:44:11;101326.69;;;31.11;73.15
6028;BME280;3042;43.194;27.646;2023-05-20T11:46:43;101295.03;;;31.53;75.27
6028;BME280;3042;43.194;27.646;2023-05-20T11:49:12;101184.47;;;31.06;76.50
6028;BME280;3042;43.194;27.646;2023-05-20T11:51:39;101283.63;;;32.00;78.14
6028;BME280;3042;43.194;27.646;2023-05-20T11:54:07;101226.66;;;31.98;75.34
6028;BME280;3042;43.194;27.646;2023-05-20T11:56:36;101277.53;;;31.96;73.53
6028;BME280;3042;43.194;27.646;2023-05-20T11:59:06;101292.00;;;31.64;70.32
6028;BME280;3042;43.194;27.646;2023-05-20T12:01:38;101310.63;;;31.41;71.37
6028;BME280;3042;43.194;27.646;2023-05-20T12:04:07;101297.25;;;31.67;71.10
6028;BME280;3042;43.194;27.646;2023-05-20T12:06:35;101284.59;;;31.72;69.11
6028;BME280;3042;43.194;27.646;2023-05-20T12:09:04;101283.53;;;32.03;72.12
6028;BME280;3042;43.194;27.646;2023-05-20T12:11:36;101307.38;;;31.58;76.99
6028;BME280;3042;43.194;27.646;2023-05-20T12:14:07;101319.53;;;31.40;77.13
6028;BME280;3042;43.194;27.646;2023-05-20T12:16:34;101310.63;;;31.12;76.83
6028;BME280;3042;43.194;27.646;2023-05-20T12:19:02;101245.09;;;31.02;77.55
6028;BME280;3042;43.194;27.646;2023-05-20T12:21:41;101322.03;;;31.18;77.88
6028;BME280;3042;43.194;27.646;2023-05-20T12:24:25;101341.13;;;31.05;78.03
6028;BME280;3042;43.194;27.646;2023-05-20T12:27:07;101319.72;;;30.77;79.15
6028;BME280;3042;43.194;27.646;2023-05-20T12:30:23;101313.38;;;31.38;81.51
6028;BME280;3042;43.194;27.646;2023-05-20T12:33:21;101301.19;;;31.29;81.02
6028;BME280;3042;43.194;27.646;2023-05-20T12:36:06;101280.13;;;31.20;77.60
6028;BME280;3042;43.194;27.646;2023-05-20T12:39:00;101300.19;;;31.60;76.15
6028;BME280;3042;43.194;27.646;2023-05-20T12:41:54;101304.03;;;31.51;74.79
6028;BME280;3042;43.194;27.646;2023-05-20T12:44:38;101298.16;;;31.40;72.68
6028;BME280;3042;43.194;27.646;2023-05-20T12:50:31;101288.63;;;31.59;74.66
6028;BME280;3042;43.194;27.646;2023-05-20T12:53:21;101273.34;;;31.88;73.78
6028;BME280;3042;43.194;27.646;2023-05-20T12:55:49;101272.56;;;31.84;75.52
6028;BME280;3042;43.194;27.646;2023-05-20T12:58:17;101295.63;;;31.35;65.80
6028;BME280;3042;43.194;27.646;2023-05-20T13:01:05;101298.97;;;31.15;61.12
6028;BME280;3042;43.194;27.646;2023-05-20T13:04:02;101277.72;;;31.12;60.31
6028;BME280;3042;43.194;27.646;2023-05-20T13:06:59;101250.38;;;30.76;59.74
6028;BME280;3042;43.194;27.646;2023-05-20T13:10:00;101325.78;;;30.53;59.94
6028;BME280;3042;43.194;27.646;2023-05-20T13:13:01;101321.47;;;30.78;59.48
6028;BME280;3042;43.194;27.646;2023-05-20T13:15:54;101320.09;;;30.65;59.92
6028;BME280;3042;43.194;27.646;2023-05-20T13:18:47;101254.19;;;30.07;61.55